Flight Track Log - Related Links

Times and Time Zones

All times are in EDT time to prevent confusion due to time zone crossing. See the SWA983 flight status page for this flight to view local times or setup timezone preferences in your user account.

Time Position Orientation Groundspeed Altitude Reporting Facility
EDT Latitude Longitude Course Direction KTS MPH feet Rate Location/Type
Tue 03:24:46 PM 39.0850 -76.5194 76° East 192 221 5,600  Level Washington Center
Tue 03:25:46 PM 39.0481 -76.4228 116° Southeast 256 295 7,200 2,450 Climbing Washington Center
Tue 03:26:46 PM 39.0319 -76.3211 101° East 262 302 10,500 2,950 Climbing Washington Center
Tue 03:27:46 PM 39.0389 -76.1956 86° East 301 346 13,100 2,950 Climbing Washington Center
Tue 03:28:00 PM 39.0333 -76.0050 90° East  Level FlightAware Approximate
Tue 03:28:46 PM 39.0458 -76.0619 86° East 339 390 16,400  Level Washington Center
Tue 03:29:00 PM 39.0433 -75.8834 76° East  Level FlightAware Approximate
Tue 03:29:46 PM 39.0525 -75.9203 86° East 374 430 19,100  Level Washington Center
Tue 03:30:46 PM 39.0569 -75.7786 88° East 391 450 21,000 950 Climbing Washington Center
Tue 03:31:46 PM 39.0633 -75.6369 87° East 396 456 21,000  Level Washington Center
Tue 03:32:46 PM 39.0694 -75.4953 87° East 396 456 21,000  Level Washington Center
Tue 03:33:46 PM 39.0778 -75.3589 85° East 391 450 21,000  Level Washington Center
Tue 03:34:46 PM 39.1211 -75.2331 66° East 379 436 21,000  Level Washington Center
Tue 03:35:46 PM 39.1708 -75.1044 63° Northeast 379 436 21,000  Level Washington Center
Tue 03:36:46 PM 39.2161 -74.9781 65° Northeast 379 436 21,000  Level Washington Center
Tue 03:37:46 PM 39.2631 -74.8517 64° Northeast 384 442 21,000  Level Washington Center
Tue 03:38:46 PM 39.3083 -74.7278 65° Northeast 384 442 21,000  Level Washington Center
Tue 03:40:34 PM 39.3939 -74.4994 64° Northeast 380 437 21,000  Level New York Center
Tue 03:41:34 PM 39.4394 -74.3731 65° Northeast 380 437 21,000  Level New York Center
Tue 03:42:35 PM 39.4850 -74.2461 65° Northeast 380 437 21,000  Level New York Center
Tue 03:43:35 PM 39.5367 -74.1194 62° Northeast 380 437 21,000 -305 Level New York Center
Tue 03:44:33 PM 39.6042 -74.0122 51° Northeast 380 437 20,400 -807 Descending New York Center
Tue 03:45:34 PM 39.6697 -73.9100 50° Northeast 374 430 19,400 -1,041 Descending New York Center
Tue 03:46:34 PM 39.7369 -73.8078 49° Northeast 374 430 18,300 -843 Descending New York Center
Tue 03:47:35 PM 39.7997 -73.7106 50° Northeast 369 425 17,700 -942 Descending New York Center
Tue 03:48:35 PM 39.8694 -73.5944 52° Northeast 369 425 16,400 -1,091 Descending New York Center
Tue 03:49:36 PM 39.9361 -73.5053 46° Northeast 355 409 15,500 -915 Descending New York Center
Tue 03:50:33 PM 39.9961 -73.4317 43° Northeast 342 394 14,600 -1,119 Descending New York Center
Tue 03:51:34 PM 40.0647 -73.3475 43° Northeast 326 375 13,300 -1,401 Descending New York Center
Tue 03:53:50 PM 40.2203 -73.1628 42° Northeast 315 362 10,000 -985 Descending Boston Center
Tue 03:55:56 PM 40.3500 -73.0167 41° Northeast 291 335 9,000 -516 Descending New York TRACON
Tue 03:56:56 PM 40.4000 -72.9333 52° Northeast 294 338 8,400 -800 Descending New York TRACON
Tue 03:57:56 PM 40.4833 -72.9167 North 285 328 7,400 -1,000 Descending New York TRACON
Tue 03:58:56 PM 40.5667 -72.8833 17° North 287 330 6,400 -1,000 Descending New York TRACON
Tue 03:59:56 PM 40.6333 -72.8667 11° North 284 327 5,400 -1,000 Descending New York TRACON
Tue 04:00:56 PM 40.7167 -72.8500 North 278 320 4,400 -950 Descending New York TRACON
Tue 04:01:56 PM 40.7833 -72.8500 360° North 270 311 3,500 -650 Descending New York TRACON
Tue 04:02:56 PM 40.8500 -72.8833 339° North 223 257 3,100 -476 Descending New York TRACON
Tue 04:04:02 PM 40.9000 -72.9000 346° North 183 211 2,500 -550 Descending New York TRACON
Tue 04:04:56 PM 40.9000 -72.9500 270° West 151 174 2,000 -263 Descending New York TRACON
Tue 04:05:56 PM 40.8833 -73.0000 246° West 142 163 2,000  Level New York TRACON

Login

Don't have an account? Register now (free) for customized features, flight alerts, and more!